createdAt,value
2018-04-06T09:15:24.662Z,21.00
2018-04-06T09:25:27.938Z,20.90
2018-04-06T09:35:32.440Z,21.00
2018-04-06T09:45:36.377Z,20.90
2018-04-06T09:55:39.575Z,20.90
2018-04-06T10:05:42.813Z,20.90
2018-04-06T10:15:46.097Z,21.10
2018-04-06T10:25:50.244Z,21.70
2018-04-06T10:35:53.449Z,21.30
2018-04-06T10:45:56.626Z,21.20
2018-04-06T10:55:59.892Z,21.30
2018-04-06T11:06:03.060Z,21.10
2018-04-06T11:16:07.043Z,21.20
2018-04-06T11:26:10.226Z,21.20
2018-04-06T11:36:13.483Z,21.20
2018-04-06T11:46:16.664Z,21.20
2018-04-06T11:56:19.853Z,21.30
2018-04-06T12:06:23.109Z,21.30
2018-04-06T12:16:26.299Z,21.50
2018-04-06T12:26:29.489Z,21.50
2018-04-06T12:36:32.667Z,21.50
2018-04-06T12:46:36.617Z,21.50
2018-04-06T12:56:40.665Z,21.60
2018-04-06T13:06:43.860Z,21.60
2018-04-06T13:16:47.071Z,21.70
2018-04-06T13:26:52.029Z,21.80
2018-04-06T13:36:55.204Z,21.80
2018-04-06T13:46:59.171Z,22.00
2018-04-06T13:57:02.857Z,21.90
2018-04-06T14:07:06.042Z,22.10
2018-04-06T14:17:09.235Z,22.10
2018-04-06T21:09:33.936Z,22.00
2018-04-06T21:19:37.999Z,22.00
2018-04-06T21:29:41.176Z,22.00
2018-04-06T21:39:44.350Z,22.00
2018-04-06T21:49:47.600Z,22.00
2018-04-06T21:59:50.769Z,22.00
2018-04-06T22:09:53.933Z,22.00
2018-04-06T22:19:57.978Z,22.00
2018-04-06T22:30:01.152Z,21.90
2018-04-06T22:40:04.321Z,22.00
2018-04-06T22:50:07.602Z,22.00
2018-04-06T23:00:10.768Z,22.20
2018-04-06T23:10:15.968Z,22.10
2018-04-06T23:20:19.165Z,22.00
2018-04-06T23:30:22.333Z,22.20
2018-04-06T23:40:25.501Z,22.00
2018-04-06T23:50:29.677Z,22.00
